Airfield :
LOGIN :

Register | Disclaimer

   EN    FR    IT 

 










Legend :    VFR   Marginal VFR   IFR   Intensive IFR   Very Intensive IFR
Visi :
Ceiling :
>= 8 km
>= 3000ft
5 to 8 km
1000 to 3000 ft
1500m to 5 km
500 to 1000 ft
800 to 1500m
200 to 500 ft
< 800m
< 200 ft
Symbols :   Thunderstorms  Fog  Heavy snow  Heavy precipitations  Wind > 20 kt
SIGMETs :     Misc.  Thunderstorms  Icing  Turbulence  Mountain Waves  Volcanic Ashes







- Airport Elevation : 154 ft
- IATA code : SZZ


EPSC - Szczecin Goleniow

CURRENT METAR :
  • 261030Z 24007KT 170V270 CAVOK 32/19 Q1018

EXPIRED METARs :
  • 261000Z 24006KT 190V280 CAVOK 32/19 Q1018
  • 260930Z 21004KT 160V280 CAVOK 31/20 Q1018
  • 260900Z 19004KT 140V260 CAVOK 31/21 Q1018
  • 260830Z 19005KT 160V240 CAVOK 30/21 Q1018
  • 260800Z 16004KT 120V200 CAVOK 29/20 Q1018

TAF TAF EPSC
Valid from the 26 at 06:00 until the 27 at 06:00 UTC


260530Z 2606/2706 13006KT CAVOK
BECMG 2609/2612 26012KT
PROB40
TEMPO 2614/2618 30015G28KT TSRA SCT030CB
BECMG 2618/2621 32012KT
TEMPO 2618/2624 34015G25KT
No reported NOTAMs for that airfield.



MET'MAP, your aeronautical weather chart ! - Copyright ORBIFLY December 2007 - Disclaimer

ORBIFLY MET'MAP TEAM :

Programming & Development : Alexandra Zaïnal
Concept & Development : Baudouin d'Aumeries
Co-Development & Prog : Marc-Olivier Méhu
Technical & hardware support : Manuel Goepfert

Contact : metmap@orbifly.com




SOURCES & CREDITS :

   NOAA